Terminal Aerodrome Forecast
Issued by NWS Upton, NY

Home | Current Version | Previous Version | Text Only | Print | Product List | Glossary On
Versions: 1 2 3 4 5 6 7 8 9 10 11 12 13 14 15 16 17 18 19 20 21 22 23 24 25 26 27 28 29 30 31 32 33 34 35 36 37 38 39 40 41
000
FTUS41 KOKX 231400 AAA
TAFLGA
TAF AMD
KLGA 231430Z 2315/2412 35018G28KT P6SM VCSH BKN025 OVC060
     FM231900 34017G27KT P6SM BKN040 OVC060
     FM232200 33015G24KT P6SM BKN040 BKN080
     FM240400 33012G21KT P6SM BKN050 BKN080
     FM240900 33011KT P6SM BKN050 BKN080=

USA.gov is the U.S. government's official web portal to all federal, state and local government web resources and services.